Time;durP1;ratioP1;P1;durP2;ratioP2;P2;SDS_P1;SDS_P2;PMS_P1;PMS_P2;Temp;Humidity;BMP_temperature;BMP_pressure;BME280_temperature;BME280_humidity;BME280_pressure;Samples;Min_cycle;Max_cycle;Signal;HPM_P1;HPM_P2
2021/04/12 00:00:22;;;;;;;6.60;3.53;;;-0.50;97.90;;;;;;5059763;28;20045;-81
2021/04/12 00:03:14;;;;;;;8.55;3.50;;;-0.50;97.90;;;;;;5062163;28;20369;-81
2021/04/12 00:05:51;;;;;;;11.70;3.90;;;-0.50;97.90;;;;;;5054570;28;20045;-81
2021/04/12 00:08:45;;;;;;;7.60;2.85;;;-0.60;97.90;;;;;;5066155;28;20039;-81
2021/04/12 00:11:33;;;;;;;7.32;3.20;;;-0.60;97.90;;;;;;5061655;28;20028;-81
2021/04/12 00:14:43;;;;;;;10.13;3.28;;;-0.60;97.90;;;;;;5061355;28;20051;-81
2021/04/12 00:17:20;;;;;;;9.48;2.90;;;-0.60;97.90;;;;;;5038690;28;20045;-81
2021/04/12 00:20:24;;;;;;;7.60;3.47;;;-0.70;97.90;;;;;;5065590;28;20056;-80
2021/04/12 00:23:12;;;;;;;10.18;3.70;;;-0.70;97.90;;;;;;5061744;28;20035;-81
2021/04/12 00:26:21;;;;;;;7.10;3.15;;;-0.70;98.00;;;;;;5062413;28;20060;-81
2021/04/12 00:28:55;;;;;;;6.32;3.85;;;-0.70;98.30;;;;;;5063160;28;20044;-81
2021/04/12 00:31:29;;;;;;;8.35;3.42;;;-0.70;98.10;;;;;;5055278;28;20123;-80
2021/04/12 00:34:02;;;;;;;10.23;3.50;;;-0.70;98.10;;;;;;5059532;28;20098;-81
2021/04/12 00:36:56;;;;;;;8.40;2.90;;;-0.70;98.10;;;;;;5060428;28;20036;-81
2021/04/12 00:39:35;;;;;;;5.90;3.08;;;-0.70;98.10;;;;;;5067703;28;20390;-80
2021/04/12 00:42:02;;;;;;;4.70;2.60;;;-0.60;98.20;;;;;;5058645;28;20154;-81
2021/04/12 00:45:05;;;;;;;8.40;3.97;;;-0.60;98.20;;;;;;5058479;28;20128;-80
2021/04/12 00:47:43;;;;;;;7.30;3.63;;;-0.60;98.20;;;;;;5067569;28;20097;-80
2021/04/12 00:50:35;;;;;;;8.98;4.13;;;-0.60;98.30;;;;;;5066286;28;20060;-80
2021/04/12 00:53:22;;;;;;;10.20;3.75;;;-0.60;98.30;;;;;;5054584;28;20533;-80
2021/04/12 00:55:55;;;;;;;8.57;3.20;;;-0.60;98.30;;;;;;5059944;28;20099;-80
2021/04/12 00:58:49;;;;;;;6.78;3.33;;;-0.60;98.30;;;;;;5061718;28;20130;-80
2021/04/12 01:01:36;;;;;;;11.48;3.72;;;-0.50;98.40;;;;;;5063770;28;20092;-80
2021/04/12 01:04:27;;;;;;;8.95;3.70;;;-0.50;98.50;;;;;;5056151;28;20465;-80
2021/04/12 01:07:05;;;;;;;9.68;3.67;;;-0.50;98.50;;;;;;5058651;28;20041;-80
2021/04/12 01:09:43;;;;;;;8.77;3.95;;;-0.50;98.50;;;;;;5053143;28;20067;-81
2021/04/12 01:12:29;;;;;;;11.63;4.60;;;-0.50;98.40;;;;;;5061991;28;20472;-80
2021/04/12 01:15:29;;;;;;;7.03;3.70;;;-0.50;98.40;;;;;;5056306;28;20037;-80
2021/04/12 01:18:17;;;;;;;11.40;3.40;;;-0.50;98.40;;;;;;5055870;28;20037;-80
2021/04/12 01:21:23;;;;;;;7.22;2.65;;;-0.50;98.50;;;;;;5069510;28;20065;-81
2021/04/12 01:24:26;;;;;;;8.13;3.15;;;-0.60;98.40;;;;;;5056415;28;20196;-80
2021/04/12 01:27:34;;;;;;;10.68;3.00;;;-0.60;98.30;;;;;;5064883;28;20052;-81
2021/04/12 01:30:31;;;;;;;5.70;3.22;;;-0.60;98.40;;;;;;5056732;28;20068;-80
2021/04/12 01:33:00;;;;;;;9.18;3.35;;;-0.60;98.40;;;;;;5067689;28;20048;-80
2021/04/12 01:35:39;;;;;;;4.65;2.92;;;-0.70;98.60;;;;;;5058079;28;20037;-80
2021/04/12 01:38:24;;;;;;;6.32;3.42;;;-0.70;98.40;;;;;;5062401;28;20533;-80
2021/04/12 01:41:11;;;;;;;7.03;3.28;;;-0.70;98.30;;;;;;5051852;28;20099;-80
2021/04/12 01:44:04;;;;;;;4.68;2.83;;;-0.70;98.40;;;;;;5066000;28;20098;-80
2021/04/12 01:47:07;;;;;;;9.35;3.13;;;-0.70;98.40;;;;;;5059866;28;20053;-80
2021/04/12 01:49:39;;;;;;;8.00;3.17;;;-0.70;98.40;;;;;;5059203;28;20167;-80
2021/04/12 01:52:29;;;;;;;6.60;3.25;;;-0.80;98.30;;;;;;5060817;28;20469;-80
2021/04/12 01:55:07;;;;;;;8.73;3.45;;;-0.80;98.30;;;;;;5051205;28;20049;-80
2021/04/12 01:57:39;;;;;;;7.93;3.05;;;-0.80;98.30;;;;;;5047372;28;20105;-80
2021/04/12 02:00:14;;;;;;;7.65;3.22;;;-0.90;98.40;;;;;;5057040;28;20049;-80
2021/04/12 02:02:50;;;;;;;8.05;3.15;;;-0.90;98.40;;;;;;5064180;28;20134;-80
2021/04/12 02:05:35;;;;;;;6.47;3.00;;;-0.90;98.40;;;;;;5061787;28;20048;-80
2021/04/12 02:08:05;;;;;;;10.25;3.15;;;-0.90;98.40;;;;;;5063061;28;20049;-80
2021/04/12 02:10:42;;;;;;;9.48;2.55;;;-0.90;98.40;;;;;;5053055;28;20040;-80
2021/04/12 02:13:50;;;;;;;5.68;2.85;;;-0.90;98.40;;;;;;5062786;28;20065;-80
2021/04/12 02:16:43;;;;;;;6.43;3.00;;;-0.90;98.40;;;;;;5054388;28;20462;-80
2021/04/12 02:19:43;;;;;;;4.72;2.53;;;-1.00;98.40;;;;;;5063351;28;20028;-80
2021/04/12 02:22:40;;;;;;;8.40;3.30;;;-1.00;98.40;;;;;;5058271;28;20045;-80
2021/04/12 02:25:15;;;;;;;5.32;2.50;;;-1.00;98.40;;;;;;5058864;28;20483;-80
2021/04/12 02:27:50;;;;;;;;;;;-1.00;98.40;;;;;;5063115;28;20049;-80
2021/04/12 02:30:40;;;;;;;6.00;3.17;;;-1.00;98.50;;;;;;5065318;28;19917;-80
2021/04/12 02:33:41;;;;;;;6.15;2.80;;;-1.00;98.50;;;;;;5055275;28;20072;-80
2021/04/12 02:36:32;;;;;;;4.50;2.55;;;-1.00;98.50;;;;;;5064524;28;20029;-80
2021/04/12 02:39:20;;;;;;;6.25;2.80;;;-1.00;98.50;;;;;;5068884;28;20057;-80
2021/04/12 02:42:16;;;;;;;8.32;3.28;;;-0.90;98.60;;;;;;5046044;28;20094;-80
2021/04/12 02:45:00;;;;;;;;;;;-0.80;99.10;;;;;;5059778;28;20041;-80
2021/04/12 02:47:32;;;;;;;6.80;3.05;;;-0.80;98.80;;;;;;5062280;28;19948;-80
2021/04/12 02:50:14;;;;;;;5.88;2.88;;;-0.80;98.80;;;;;;5061165;28;20064;-80
2021/04/12 02:53:02;;;;;;;7.95;2.40;;;-0.80;98.80;;;;;;5053506;28;20130;-80
2021/04/12 02:55:39;;;;;;;8.63;3.45;;;-0.80;98.70;;;;;;5062856;28;20029;-80
2021/04/12 02:58:45;;;;;;;5.85;3.10;;;-0.80;98.70;;;;;;5054293;28;20044;-80
2021/04/12 03:01:41;;;;;;;5.10;2.40;;;-0.90;98.80;;;;;;5065939;28;20076;-80
2021/04/12 03:04:42;;;;;;;7.93;2.67;;;-0.90;98.80;;;;;;5060469;28;20394;-80
2021/04/12 03:07:38;;;;;;;4.65;2.47;;;-0.90;98.80;;;;;;5070391;28;20091;-80
2021/04/12 03:10:34;;;;;;;6.57;2.40;;;-0.90;98.80;;;;;;5060567;28;20048;-80
2021/04/12 03:13:19;;;;;;;5.78;2.35;;;-0.90;98.70;;;;;;5061666;28;20033;-80
2021/04/12 03:16:04;;;;;;;;;;;-0.90;98.70;;;;;;5068215;28;20389;-80
2021/04/12 03:19:14;;;;;;;5.15;2.17;;;-1.00;98.70;;;;;;5064808;28;19927;-81
2021/04/12 03:21:46;;;;;;;5.80;2.28;;;-1.00;98.70;;;;;;5046717;28;20060;-80
2021/04/12 03:24:19;;;;;;;8.52;2.78;;;-1.10;98.60;;;;;;5060240;28;20039;-81
2021/04/12 03:27:10;;;;;;;7.05;2.78;;;-1.10;98.60;;;;;;5061355;28;20053;-81
2021/04/12 03:29:45;;;;;;;7.78;2.20;;;-1.10;98.70;;;;;;5063805;28;20041;-81
2021/04/12 03:32:36;;;;;;;6.53;2.45;;;-1.10;98.70;;;;;;5060151;28;20045;-81
2021/04/12 03:35:13;;;;;;;4.57;2.40;;;-1.10;98.90;;;;;;5054338;28;20033;-80
2021/04/12 03:37:49;;;;;;;6.25;1.88;;;-1.10;98.90;;;;;;5062519;28;20111;-80
2021/04/12 03:40:40;;;;;;;8.27;2.63;;;-1.10;99.00;;;;;;5062592;28;20108;-81
2021/04/12 03:43:57;;;;;;;3.72;2.20;;;-1.10;99.10;;;;;;5026282;28;20456;-80
2021/04/12 03:46:39;;;;;;;7.43;2.28;;;-1.20;99.10;;;;;;5034036;28;20135;-80
2021/04/12 03:49:08;;;;;;;5.85;2.00;;;-1.20;99.10;;;;;;5054453;28;20447;-81
2021/04/12 03:51:50;;;;;;;5.20;2.38;;;-1.20;99.20;;;;;;5060269;28;20045;-80
2021/04/12 03:54:16;;;;;;;4.95;2.13;;;-1.20;99.20;;;;;;5057042;28;20116;-81
2021/04/12 03:57:03;;;;;;;3.28;2.35;;;-1.20;99.20;;;;;;5061113;28;20829;-81
2021/04/12 03:59:42;;;;;;;7.43;2.38;;;-1.20;99.30;;;;;;5058248;28;20059;-81
2021/04/12 04:02:33;;;;;;;4.68;2.13;;;-1.20;99.30;;;;;;5059724;28;20462;-81
2021/04/12 04:05:21;;;;;;;4.78;2.20;;;-1.20;99.40;;;;;;5058928;28;20068;-81
2021/04/12 04:08:19;;;;;;;4.75;1.95;;;-1.20;99.40;;;;;;5062085;28;20115;-81
2021/04/12 04:11:15;;;;;;;4.38;2.08;;;-1.20;99.40;;;;;;5058724;28;20057;-81
2021/04/12 04:14:06;;;;;;;5.38;2.90;;;-1.10;99.50;;;;;;5074481;28;20429;-80
2021/04/12 04:16:38;;;;;;;5.45;2.53;;;-1.10;99.50;;;;;;5054878;28;20044;-80
2021/04/12 04:19:16;;;;;;;5.28;2.50;;;-1.10;99.60;;;;;;5069139;28;20059;-81
2021/04/12 04:21:44;;;;;;;3.50;2.20;;;-1.10;99.60;;;;;;5064043;28;20094;-81
2021/04/12 04:24:32;;;;;;;7.28;2.10;;;-1.10;99.60;;;;;;5065136;28;20041;-81
2021/04/12 04:27:04;;;;;;;7.10;2.45;;;-1.10;99.60;;;;;;5075026;28;20055;-81
2021/04/12 04:29:50;;;;;;;6.25;2.70;;;-1.00;99.60;;;;;;5062895;28;20067;-81
2021/04/12 04:32:30;;;;;;;5.57;2.72;;;-1.00;99.60;;;;;;5060267;28;20049;-80
2021/04/12 04:35:08;;;;;;;10.63;6.47;;;-1.00;99.60;;;;;;5060319;28;20405;-80
2021/04/12 04:37:49;;;;;;;6.18;3.65;;;-1.00;99.70;;;;;;5061428;28;20409;-80
2021/04/12 04:40:26;;;;;;;9.20;4.72;;;-1.00;99.80;;;;;;5058155;28;20040;-80
2021/04/12 04:43:13;;;;;;;6.68;4.03;;;-1.00;99.70;;;;;;5039032;28;20080;-80
2021/04/12 04:46:10;;;;;;;8.77;3.38;;;-0.90;99.80;;;;;;5061369;28;20045;-81
2021/04/12 04:49:04;;;;;;;5.78;2.63;;;-0.80;99.90;;;;;;5060413;28;20481;-81
2021/04/12 04:52:03;;;;;;;7.45;3.35;;;-0.80;99.90;;;;;;5051912;28;20163;-81
2021/04/12 04:54:54;;;;;;;6.78;2.90;;;-0.80;99.90;;;;;;5059512;28;20040;-82
2021/04/12 04:57:50;;;;;;;6.85;2.72;;;-0.70;99.90;;;;;;5059700;28;20392;-81
2021/04/12 05:00:35;;;;;;;6.97;2.72;;;-0.70;99.90;;;;;;5061425;28;20044;-82
2021/04/12 05:03:34;;;;;;;7.90;3.28;;;-0.80;99.90;;;;;;5061871;28;20459;-83
2021/04/12 05:06:20;;;;;;;7.68;2.70;;;-0.70;99.90;;;;;;5055155;28;20037;-84
2021/04/12 05:09:20;;;;;;;6.72;2.42;;;-0.70;99.90;;;;;;5046403;28;20071;-81
2021/04/12 05:12:10;;;;;;;6.82;2.80;;;-0.80;99.90;;;;;;5055452;28;20163;-83
2021/04/12 05:14:52;;;;;;;6.20;2.78;;;-0.80;99.90;;;;;;5061553;28;20057;-83
2021/04/12 05:17:37;;;;;;;3.65;2.60;;;-0.80;99.90;;;;;;5054519;28;20057;-82
2021/04/12 05:20:10;;;;;;;6.22;2.85;;;-0.80;99.90;;;;;;5052143;28;20406;-82
2021/04/12 05:23:02;;;;;;;6.63;2.72;;;-0.80;99.90;;;;;;5043696;28;20471;-81
2021/04/12 05:25:33;;;;;;;5.38;2.80;;;-0.80;99.90;;;;;;5022859;28;20118;-84
2021/04/12 05:28:31;;;;;;;6.00;3.00;;;-0.80;99.90;;;;;;5051158;28;20243;-82
2021/04/12 05:31:39;;;;;;;4.32;2.47;;;-0.80;99.90;;;;;;5056697;28;20056;-82
2021/04/12 05:34:24;;;;;;;8.07;3.05;;;-0.70;99.90;;;;;;5053373;28;20036;-79
2021/04/12 05:37:14;;;;;;;11.23;4.35;;;-0.50;99.90;;;;;;5056817;28;20028;-82
2021/04/12 05:40:14;;;;;;;6.80;2.58;;;-0.30;99.90;;;;;;5059951;28;20049;-83
2021/04/12 05:42:58;;;;;;;8.20;4.15;;;0.00;99.90;;;;;;5045074;28;20389;-83
2021/04/12 05:45:40;;;;;;;9.98;4.55;;;0.20;99.90;;;;;;5057693;28;20056;-82
2021/04/12 05:48:34;;;;;;;7.78;3.65;;;0.50;99.90;;;;;;5066636;28;20033;-83
2021/04/12 05:51:14;;;;;;;7.45;3.22;;;0.70;99.90;;;;;;5052759;28;20049;-82
2021/04/12 05:54:09;;;;;;;5.75;3.17;;;1.00;99.90;;;;;;5051134;28;21054;-82
2021/04/12 05:56:34;;;;;;;9.43;4.30;;;1.20;99.90;;;;;;5045693;28;20036;-80
2021/04/12 05:59:32;;;;;;;8.82;4.00;;;1.50;99.90;;;;;;5052967;28;20824;-81
2021/04/12 06:02:22;;;;;;;4.35;2.70;;;1.70;99.80;;;;;;5016931;28;20104;-82
2021/04/12 06:05:06;;;;;;;5.35;4.28;;;2.00;99.70;;;;;;5055072;28;20107;-82
2021/04/12 06:07:46;;;;;;;6.40;3.60;;;2.20;99.50;;;;;;5069618;28;20037;-82
2021/04/12 06:10:47;;;;;;;4.75;2.60;;;2.40;99.30;;;;;;5053280;28;20249;-82
2021/04/12 06:13:51;;;;;;;3.72;1.85;;;2.60;98.90;;;;;;5057000;28;20065;-81
2021/04/12 06:16:41;;;;;;;6.05;3.53;;;2.80;98.90;;;;;;5004189;28;20057;-81
2021/04/12 06:19:28;;;;;;;4.55;1.83;;;3.10;98.60;;;;;;5068433;28;20550;-81
2021/04/12 06:22:09;;;;;;;3.42;2.60;;;3.30;98.30;;;;;;5073171;28;20358;-81
2021/04/12 06:24:50;;;;;;;5.18;2.20;;;3.50;98.30;;;;;;5062904;28;20038;-81
2021/04/12 06:27:39;;;;;;;6.60;1.85;;;3.80;97.90;;;;;;5055220;28;20048;-81
2021/04/12 06:30:39;;;;;;;5.60;1.58;;;4.10;97.40;;;;;;5057604;28;20112;-80
2021/04/12 06:33:29;;;;;;;5.90;1.60;;;4.30;96.50;;;;;;5061992;28;20037;-81
2021/04/12 06:36:35;;;;;;;4.90;1.20;;;4.50;96.40;;;;;;5059747;28;20475;-81
2021/04/12 06:39:38;;;;;;;3.15;1.45;;;4.80;96.10;;;;;;5063767;28;20480;-79
2021/04/12 06:42:10;;;;;;;3.20;1.25;;;5.00;95.40;;;;;;5050673;28;20091;-80
2021/04/12 06:44:54;;;;;;;4.95;1.13;;;5.20;94.80;;;;;;5060621;28;20078;-79
2021/04/12 06:48:02;;;;;;;5.33;1.10;;;5.60;94.10;;;;;;5069056;28;20098;-79
2021/04/12 06:50:37;;;;;;;4.85;0.93;;;5.80;93.40;;;;;;5053907;28;20107;-80
2021/04/12 06:53:27;;;;;;;4.55;0.90;;;5.90;93.60;;;;;;5066274;28;20033;-80
2021/04/12 06:55:56;;;;;;;5.35;0.80;;;6.20;92.60;;;;;;5065967;28;20033;-79
2021/04/12 06:58:44;;;;;;;5.50;2.55;;;6.40;92.70;;;;;;5061169;28;20057;-79
2021/04/12 07:01:46;;;;;;;2.70;0.90;;;6.70;90.80;;;;;;5067205;28;20059;-79
2021/04/12 07:04:34;;;;;;;3.95;0.65;;;6.90;90.80;;;;;;5069773;28;20043;-79
2021/04/12 07:07:37;;;;;;;3.33;0.65;;;7.10;90.20;;;;;;5067572;28;20124;-79
2021/04/12 07:10:06;;;;;;;5.00;0.95;;;7.30;88.30;;;;;;5067931;28;20080;-80
2021/04/12 07:12:53;;;;;;;3.90;0.68;;;7.50;89.70;;;;;;5062329;28;20134;-80
2021/04/12 07:15:26;;;;;;;4.55;0.65;;;7.60;87.80;;;;;;5063348;28;20128;-79
2021/04/12 07:18:23;;;;;;;5.95;1.08;;;7.80;87.30;;;;;;5062193;28;20040;-79
2021/04/12 07:21:20;;;;;;;6.10;0.82;;;7.90;86.20;;;;;;5073096;28;20070;-79
2021/04/12 07:24:23;;;;;;;5.00;0.57;;;8.10;83.10;;;;;;5057383;28;20057;-79
2021/04/12 07:27:22;;;;;;;4.82;0.60;;;8.20;81.50;;;;;;5064885;28;20079;-80
2021/04/12 07:30:19;;;;;;;4.93;0.73;;;8.40;79.60;;;;;;5057730;28;20037;-79
2021/04/12 07:33:10;;;;;;;3.28;0.70;;;8.40;84.50;;;;;;5060352;28;20061;-81
2021/04/12 07:35:41;;;;;;;5.90;0.60;;;8.60;82.10;;;;;;5064595;28;20038;-80
2021/04/12 07:38:45;;;;;;;9.80;0.65;;;8.80;85.60;;;;;;5058725;28;20300;-80
2021/04/12 07:41:26;;;;;;;5.63;0.85;;;8.80;81.50;;;;;;5062920;28;20040;-80
2021/04/12 07:44:23;;;;;;;2.38;0.68;;;8.80;81.10;;;;;;5065179;28;20036;-80
2021/04/12 07:46:57;;;;;;;2.65;0.50;;;8.90;82.20;;;;;;5068505;28;20044;-80
2021/04/12 07:49:26;;;;;;;6.40;0.88;;;9.10;83.60;;;;;;5058512;28;20036;-80
2021/04/12 07:52:34;;;;;;;3.53;1.02;;;9.20;82.50;;;;;;5070256;28;20021;-80
2021/04/12 07:55:38;;;;;;;3.17;0.82;;;9.30;76.40;;;;;;5065529;28;20053;-80
2021/04/12 07:58:22;;;;;;;5.97;0.70;;;9.40;77.90;;;;;;5035445;28;20136;-79
2021/04/12 08:01:16;;;;;;;4.80;0.60;;;9.40;80.60;;;;;;5053342;28;20049;-79
2021/04/12 08:04:17;;;;;;;4.28;0.77;;;9.60;72.80;;;;;;5062456;28;20400;-79
2021/04/12 08:07:30;;;;;;;5.82;0.70;;;9.80;70.80;;;;;;5061632;28;20361;-79
2021/04/12 08:10:21;;;;;;;6.50;0.68;;;9.90;65.80;;;;;;5059300;28;20476;-80
2021/04/12 08:12:56;;;;;;;1.85;0.30;;;10.10;71.30;;;;;;5060980;28;20045;-80
2021/04/12 08:16:05;;;;;;;4.95;0.60;;;10.40;72.10;;;;;;5058022;28;20036;-79
2021/04/12 08:18:33;;;;;;;3.90;0.45;;;10.50;70.60;;;;;;5065278;28;20040;-80
2021/04/12 08:21:17;;;;;;;2.78;0.60;;;10.40;76.40;;;;;;5056516;28;20122;-81
2021/04/12 08:24:01;;;;;;;4.43;0.52;;;9.90;71.40;;;;;;5064070;28;20404;-80
2021/04/12 08:26:57;;;;;;;3.70;0.50;;;9.30;69.90;;;;;;5060211;28;20630;-80
2021/04/12 08:29:46;;;;;;;;;;;9.30;71.80;;;;;;5070901;28;20036;-82
2021/04/12 08:32:49;;;;;;;4.03;0.60;;;9.70;62.10;;;;;;5027747;28;20763;-80
2021/04/12 08:35:21;;;;;;;2.67;0.70;;;10.20;63.50;;;;;;5048728;28;20112;-81
2021/04/12 08:38:22;;;;;;;6.15;0.85;;;10.30;69.40;;;;;;5062096;28;20073;-83
2021/04/12 08:41:09;;;;;;;6.07;1.00;;;9.90;64.00;;;;;;5055985;28;20059;-80
2021/04/12 08:44:14;;;;;;;4.63;0.82;;;9.30;72.80;;;;;;5066480;28;20476;-80
2021/04/12 08:47:21;;;;;;;3.50;0.50;;;9.20;68.10;;;;;;5028149;28;20450;-82
2021/04/12 08:49:55;;;;;;;2.95;0.50;;;9.10;67.00;;;;;;5049711;28;20045;-82
2021/04/12 08:52:56;;;;;;;5.38;0.43;;;8.90;72.20;;;;;;5069909;28;20052;-82
2021/04/12 08:56:00;;;;;;;4.40;0.50;;;9.00;68.60;;;;;;5055134;28;20052;-80
2021/04/12 08:59:07;;;;;;;3.47;0.40;;;9.20;67.60;;;;;;5070087;28;20060;-82
2021/04/12 09:02:24;;;;;;;4.47;0.55;;;9.60;69.60;;;;;;5051842;28;20037;-83
2021/04/12 09:05:24;;;;;;;3.00;0.43;;;10.00;63.10;;;;;;5066124;28;20469;-82
2021/04/12 09:08:09;;;;;;;4.80;0.50;;;10.10;62.50;;;;;;5054667;28;20041;-82
2021/04/12 09:11:19;;;;;;;3.88;0.60;;;10.10;61.80;;;;;;5062275;28;20403;-81
2021/04/12 09:14:17;;;;;;;3.95;0.70;;;9.80;59.30;;;;;;5059044;28;20045;-84
2021/04/12 09:17:32;;;;;;;4.28;0.60;;;9.60;66.40;;;;;;5044963;28;20135;-80
2021/04/12 09:20:28;;;;;;;4.72;0.40;;;9.70;66.10;;;;;;5056535;28;20047;-83
2021/04/12 09:23:13;;;;;;;3.25;0.30;;;9.90;67.70;;;;;;5049574;28;20037;-81
2021/04/12 09:25:58;;;;;;;;;;;9.80;66.90;;;;;;5072487;28;20186;-79
2021/04/12 09:29:07;;;;;;;3.05;0.40;;;9.50;60.90;;;;;;5052988;28;20015;-79
2021/04/12 09:31:54;;;;;;;2.38;0.30;;;9.40;62.20;;;;;;5061805;28;20069;-80
2021/04/12 09:34:47;;;;;;;5.03;0.40;;;9.60;67.00;;;;;;5055501;28;20033;-80
2021/04/12 09:37:51;;;;;;;2.10;0.37;;;9.60;61.20;;;;;;5059614;28;20040;-80
2021/04/12 09:40:34;;;;;;;1.88;0.47;;;9.50;57.80;;;;;;5054235;28;20515;-80
2021/04/12 09:43:29;;;;;;;2.15;0.40;;;9.10;58.80;;;;;;5056894;28;20053;-80
2021/04/12 09:46:08;;;;;;;3.10;0.40;;;8.70;58.10;;;;;;5072523;28;20055;-79
2021/04/12 09:48:55;;;;;;;2.15;0.55;;;8.30;64.40;;;;;;5053770;28;20059;-81
2021/04/12 09:52:00;;;;;;;3.03;0.20;;;8.40;61.90;;;;;;5060055;28;20045;-78
2021/04/12 09:54:43;;;;;;;3.05;0.30;;;8.70;56.80;;;;;;5052645;28;20095;-79
2021/04/12 09:57:24;;;;;;;2.08;0.30;;;9.00;59.30;;;;;;5060310;28;20040;-77
2021/04/12 09:59:57;;;;;;;2.75;0.32;;;9.30;63.70;;;;;;5050953;28;20041;-78
2021/04/12 10:02:47;;;;;;;2.80;0.30;;;9.80;61.90;;;;;;5062189;28;20041;-78
2021/04/12 10:05:34;;;;;;;1.95;0.30;;;9.90;62.70;;;;;;5053054;28;20041;-78
2021/04/12 10:08:11;;;;;;;2.65;0.40;;;9.70;61.40;;;;;;5057804;28;20033;-80
2021/04/12 10:10:45;;;;;;;5.10;0.82;;;9.40;63.50;;;;;;5048074;28;20116;-78
2021/04/12 10:13:34;;;;;;;2.88;0.40;;;9.10;64.50;;;;;;5059867;28;20044;-79
2021/04/12 10:16:13;;;;;;;3.25;0.50;;;9.40;65.60;;;;;;5051683;28;20037;-83
2021/04/12 10:18:44;;;;;;;1.50;0.30;;;9.80;60.20;;;;;;5063786;28;20036;-81
2021/04/12 10:21:34;;;;;;;3.35;0.60;;;10.00;63.80;;;;;;5074772;28;20048;-80
2021/04/12 10:24:25;;;;;;;5.18;0.57;;;9.80;56.40;;;;;;5046558;28;20583;-81
2021/04/12 10:27:10;;;;;;;2.42;0.28;;;9.60;60.50;;;;;;5062483;28;20029;-81
2021/04/12 10:30:06;;;;;;;1.88;0.30;;;9.60;61.60;;;;;;5056379;28;20130;-81
2021/04/12 10:33:00;;;;;;;1.48;0.30;;;9.50;58.00;;;;;;5065862;28;20037;-82
2021/04/12 10:35:42;;;;;;;3.85;0.38;;;9.20;59.50;;;;;;5060017;28;20053;-81
2021/04/12 10:38:23;;;;;;;3.40;0.65;;;8.80;61.40;;;;;;5064453;28;20052;-78
2021/04/12 10:41:40;;;;;;;6.50;0.50;;;8.50;63.70;;;;;;5052339;28;20065;-78
2021/04/12 10:44:41;;;;;;;3.78;0.55;;;8.50;63.60;;;;;;5035352;28;20048;-78
2021/04/12 10:47:21;;;;;;;5.47;0.65;;;8.60;67.00;;;;;;5058223;28;20109;-77
2021/04/12 10:50:20;;;;;;;2.55;0.40;;;8.90;65.00;;;;;;5057307;28;20471;-79
2021/04/12 10:53:19;;;;;;;2.38;0.57;;;9.00;64.00;;;;;;5064905;28;20087;-81
2021/04/12 10:55:55;;;;;;;3.00;0.45;;;8.80;66.50;;;;;;5057214;28;20044;-81
2021/04/12 10:58:58;;;;;;;1.67;0.20;;;8.40;69.40;;;;;;5065108;28;20118;-81
2021/04/12 11:01:36;;;;;;;2.80;1.15;;;7.90;70.60;;;;;;5057136;28;20453;-81
2021/04/12 11:04:38;;;;;;;0.40;0.10;;;7.60;73.60;;;;;;5061636;28;20039;-82
2021/04/12 11:07:27;;;;;;;1.13;0.08;;;7.60;75.50;;;;;;5063995;28;20053;-82
2021/04/12 11:10:02;;;;;;;2.78;0.20;;;7.60;73.80;;;;;;5068153;28;20059;-82
2021/04/12 11:12:44;;;;;;;1.13;0.15;;;7.70;75.50;;;;;;5059606;28;20028;-82
2021/04/12 11:15:28;;;;;;;2.10;0.20;;;7.80;72.10;;;;;;5071691;28;20092;-82
2021/04/12 11:18:11;;;;;;;2.22;0.20;;;7.70;68.90;;;;;;5057634;28;20029;-81
2021/04/12 11:20:48;;;;;;;1.15;0.30;;;7.60;69.60;;;;;;5062658;28;20029;-81
2021/04/12 11:23:22;;;;;;;1.30;0.28;;;7.50;73.20;;;;;;5058290;28;20032;-81
2021/04/12 11:26:20;;;;;;;1.48;0.20;;;7.50;73.50;;;;;;5060371;28;20033;-81
2021/04/12 11:29:01;;;;;;;1.67;0.20;;;7.60;74.70;;;;;;5059491;28;20405;-81
2021/04/12 11:32:08;;;;;;;1.17;0.20;;;7.50;71.30;;;;;;5063769;28;20045;-80
2021/04/12 11:34:51;;;;;;;1.92;0.40;;;7.30;73.70;;;;;;5070541;28;20048;-80
2021/04/12 11:37:42;;;;;;;1.50;0.40;;;7.30;74.30;;;;;;5047515;28;20488;-79
2021/04/12 11:40:20;;;;;;;4.43;0.35;;;7.30;73.70;;;;;;5055875;28;20400;-78
2021/04/12 11:43:23;;;;;;;3.20;0.40;;;7.40;76.90;;;;;;5054029;28;20075;-79
2021/04/12 11:45:55;;;;;;;2.83;0.50;;;7.70;75.40;;;;;;5054977;28;20053;-79
2021/04/12 11:48:45;;;;;;;4.13;0.40;;;7.90;75.70;;;;;;5054538;28;20178;-79
2021/04/12 11:51:23;;;;;;;4.72;0.65;;;8.20;73.10;;;;;;5059489;28;20052;-79
2021/04/12 11:54:00;;;;;;;2.00;0.52;;;8.60;72.70;;;;;;5058654;28;20136;-79
2021/04/12 11:56:41;;;;;;;2.40;0.50;;;8.80;72.60;;;;;;5059929;28;20079;-79
2021/04/12 11:59:32;;;;;;;1.83;0.40;;;8.70;73.90;;;;;;5040422;28;20481;-79
2021/04/12 12:02:14;;;;;;;2.95;0.32;;;8.30;76.80;;;;;;5066995;28;20083;-79
2021/04/12 12:04:59;;;;;;;2.60;0.30;;;8.00;79.50;;;;;;5051404;28;20080;-79
2021/04/12 12:07:33;;;;;;;;;;;7.70;79.50;;;;;;5057326;28;20048;-79
2021/04/12 12:10:37;;;;;;;2.67;0.30;;;7.40;77.60;;;;;;5057983;28;19970;-79
2021/04/12 12:13:28;;;;;;;2.85;0.28;;;7.30;79.70;;;;;;5063377;28;20105;-78
2021/04/12 12:16:15;;;;;;;3.50;0.20;;;7.20;79.70;;;;;;5054659;28;20072;-78
2021/04/12 12:18:53;;;;;;;3.35;0.50;;;7.40;79.20;;;;;;5059592;28;20060;-80
2021/04/12 12:21:30;;;;;;;4.00;0.35;;;7.70;77.80;;;;;;5058827;28;20044;-82
2021/04/12 12:24:18;;;;;;;2.00;0.30;;;8.00;73.00;;;;;;5058371;28;20037;-81
2021/04/12 12:27:08;;;;;;;2.60;0.30;;;8.20;67.50;;;;;;5062322;28;20130;-81
2021/04/12 12:29:42;;;;;;;1.38;0.98;;;8.40;66.00;;;;;;5064231;28;20449;-80
2021/04/12 12:32:17;;;;;;;1.43;0.20;;;8.40;65.70;;;;;;5056604;28;20074;-81
2021/04/12 12:35:01;;;;;;;2.25;0.30;;;8.60;60.70;;;;;;5056387;28;20036;-81
2021/04/12 12:38:05;;;;;;;3.53;0.28;;;8.70;61.20;;;;;;5047290;28;20083;-79
2021/04/12 12:40:53;;;;;;;2.67;0.68;;;8.80;61.70;;;;;;5060073;28;20132;-78
2021/04/12 12:43:24;;;;;;;1.27;0.10;;;9.10;61.90;;;;;;5066061;28;20068;-80
2021/04/12 12:45:51;;;;;;;2.08;0.20;;;9.30;65.90;;;;;;5057505;28;20147;-80
2021/04/12 12:48:22;;;;;;;2.47;0.20;;;9.50;65.20;;;;;;5063412;28;20219;-80
2021/04/12 12:51:00;;;;;;;0.98;0.20;;;9.30;64.40;;;;;;5061531;28;20051;-80
2021/04/12 12:53:34;;;;;;;1.13;0.10;;;8.90;64.70;;;;;;5057177;28;20045;-80
2021/04/12 12:56:12;;;;;;;1.58;0.30;;;8.30;68.40;;;;;;5055710;28;20040;-80
2021/04/12 12:58:51;;;;;;;1.08;0.10;;;8.00;72.40;;;;;;5057458;28;20076;-80
2021/04/12 13:01:32;;;;;;;1.10;0.20;;;7.60;74.80;;;;;;5046169;28;20165;-79
2021/04/12 13:04:17;;;;;;;4.43;0.80;;;7.30;78.30;;;;;;5063138;28;20035;-79
2021/04/12 13:06:45;;;;;;;3.60;0.30;;;7.20;79.30;;;;;;5056867;28;20056;-79
2021/04/12 13:09:22;;;;;;;0.90;0.20;;;7.30;81.10;;;;;;5078282;28;20056;-80
2021/04/12 13:11:51;;;;;;;2.17;0.38;;;7.40;80.80;;;;;;5050833;28;20060;-79
2021/04/12 13:14:40;;;;;;;1.05;0.20;;;7.30;81.00;;;;;;5046131;28;20040;-79
2021/04/12 13:17:24;;;;;;;2.63;0.30;;;7.40;79.70;;;;;;5057872;28;20067;-80
2021/04/12 13:19:53;;;;;;;1.45;0.30;;;7.10;77.30;;;;;;5065029;28;20044;-79
2021/04/12 13:22:26;;;;;;;2.00;0.40;;;6.80;80.00;;;;;;5053519;28;20075;-79
2021/04/12 13:24:52;;;;;;;1.83;0.20;;;6.70;81.50;;;;;;5054933;28;20040;-79
2021/04/12 13:27:23;;;;;;;4.22;0.50;;;6.70;82.40;;;;;;5055507;28;20386;-79
2021/04/12 13:29:52;;;;;;;4.82;0.30;;;6.80;83.00;;;;;;5059421;28;20052;-78
2021/04/12 13:32:22;;;;;;;0.73;0.20;;;7.10;83.10;;;;;;5054711;28;20117;-79
2021/04/12 13:35:04;;;;;;;2.60;0.30;;;7.50;84.30;;;;;;5054131;28;20040;-78
2021/04/12 13:37:59;;;;;;;1.00;0.20;;;8.00;82.60;;;;;;5049530;28;20041;-78
2021/04/12 13:40:28;;;;;;;3.78;0.30;;;8.30;75.30;;;;;;5040936;28;20071;-78
2021/04/12 13:43:03;;;;;;;1.25;0.17;;;8.40;73.90;;;;;;5050844;28;20089;-78
2021/04/12 13:45:37;;;;;;;3.07;0.30;;;8.50;74.50;;;;;;5052059;28;20107;-78
2021/04/12 13:48:23;;;;;;;3.45;0.20;;;8.40;72.30;;;;;;5048271;28;20048;-78
2021/04/12 13:51:08;;;;;;;1.33;0.20;;;7.80;71.10;;;;;;5053625;28;20139;-79
2021/04/12 13:53:34;;;;;;;0.30;0.10;;;7.20;74.90;;;;;;5048972;28;20120;-81
2021/04/12 13:56:12;;;;;;;1.05;0.20;;;6.70;77.90;;;;;;5062440;28;20048;-80
2021/04/12 13:58:41;;;;;;;0.63;0.20;;;6.50;80.50;;;;;;5058069;28;20048;-80
2021/04/12 14:01:16;;;;;;;1.98;0.30;;;6.40;81.50;;;;;;5057985;28;20044;-82
2021/04/12 14:04:02;;;;;;;1.98;0.30;;;6.30;82.30;;;;;;5051408;28;20125;-81
2021/04/12 14:06:53;;;;;;;2.10;0.10;;;6.30;82.50;;;;;;5058825;28;20037;-79
2021/04/12 14:09:26;;;;;;;1.13;0.30;;;6.30;81.40;;;;;;5057442;28;20049;-81
2021/04/12 14:11:56;;;;;;;1.35;0.17;;;6.30;83.00;;;;;;5058559;28;20149;-85
2021/04/12 14:14:53;;;;;;;0.30;0.10;;;6.30;83.20;;;;;;5058581;28;20041;-83
2021/04/12 14:17:31;;;;;;;1.33;0.30;;;6.30;81.50;;;;;;5075952;28;20439;-82
2021/04/12 14:20:21;;;;;;;1.58;0.10;;;6.40;83.20;;;;;;5053559;28;20045;-80
2021/04/12 14:22:51;;;;;;;2.75;0.43;;;6.50;81.50;;;;;;5058458;28;20067;-80
2021/04/12 14:25:31;;;;;;;1.65;0.47;;;6.60;82.90;;;;;;5064197;28;20044;-80
2021/04/12 14:28:26;;;;;;;12.40;7.03;;;6.80;82.30;;;;;;5059893;28;20513;-79
2021/04/12 14:31:04;;;;;;;1.95;0.50;;;7.00;77.80;;;;;;5057138;28;20047;-80
2021/04/12 14:33:45;;;;;;;1.15;0.22;;;7.20;78.40;;;;;;5071737;28;20053;-81